createdAt,value
2018-10-01T00:03:35.761Z,13.6
2018-10-01T00:08:32.012Z,13.6
2018-10-01T00:13:28.908Z,12.8
2018-10-01T00:18:25.303Z,13.5
2018-10-01T00:23:21.795Z,13.5
2018-10-01T00:28:18.065Z,13.5
2018-10-01T00:33:14.389Z,13.5
2018-10-01T00:38:10.335Z,13.5
2018-10-01T00:43:06.592Z,13.5
2018-10-01T00:48:02.928Z,13.4
2018-10-01T00:52:59.122Z,13.4
2018-10-01T00:57:55.693Z,13.4
2018-10-01T01:02:52.330Z,13.5
2018-10-01T01:07:48.769Z,13.5
2018-10-01T01:12:44.999Z,13.5
2018-10-01T01:17:41.527Z,13.5
2018-10-01T01:22:38.075Z,13.5
2018-10-01T01:27:34.573Z,12.8
2018-10-01T01:32:30.695Z,13.5
2018-10-01T01:37:27.505Z,13.5
2018-10-01T01:42:23.578Z,13.5
2018-10-01T01:47:19.985Z,13.5
2018-10-01T01:52:16.910Z,12.8
2018-10-01T01:57:13.334Z,13.5
2018-10-01T02:02:09.760Z,13.5
2018-10-01T02:07:06.000Z,13.5
2018-10-01T02:12:02.212Z,13.5
2018-10-01T02:16:58.090Z,13.5
2018-10-01T02:21:54.299Z,13.5
2018-10-01T02:26:50.375Z,13.5
2018-10-01T02:31:47.187Z,13.5
2018-10-01T02:36:43.523Z,13.5
2018-10-01T02:41:39.959Z,13.5
2018-10-01T02:46:36.326Z,13.5
2018-10-01T02:51:32.651Z,13.5
2018-10-01T02:56:28.986Z,13
2018-10-01T03:01:25.248Z,13.5
2018-10-01T03:06:22.002Z,13.5
2018-10-01T03:11:18.108Z,13.5
2018-10-01T03:16:14.217Z,13.5
2018-10-01T03:21:10.424Z,13.5
2018-10-01T03:26:07.459Z,13.5
2018-10-01T03:31:03.625Z,13.4
2018-10-01T03:36:00.257Z,13.4
2018-10-01T03:40:56.135Z,12.7
2018-10-01T03:45:52.446Z,13.4
2018-10-01T03:50:48.920Z,13.4
2018-10-01T03:55:45.620Z,13.4
2018-10-01T04:00:42.257Z,13.4
2018-10-01T04:05:38.919Z,13.4
2018-10-01T04:10:35.245Z,13.4
2018-10-01T04:15:31.682Z,13.4
2018-10-01T04:20:28.099Z,13.4
2018-10-01T04:25:24.271Z,13.5
2018-10-01T04:30:21.040Z,13.5
2018-10-01T04:35:17.266Z,13.5
2018-10-01T04:40:13.742Z,13.5
2018-10-01T04:45:10.198Z,13.5
2018-10-01T04:50:06.409Z,12.8
2018-10-01T04:55:01.178Z,12.8
2018-10-01T04:59:56.318Z,12.8
2018-10-01T05:04:53.265Z,12.8
2018-10-01T05:09:49.510Z,13.6
2018-10-01T05:14:45.535Z,13.6
2018-10-01T05:19:41.783Z,13.6
2018-10-01T05:24:38.493Z,13.6
2018-10-01T05:29:34.677Z,13.6
2018-10-01T05:34:30.944Z,13.6
2018-10-01T05:39:27.232Z,13.6
2018-10-01T05:44:22.681Z,13.6
2018-10-01T05:49:19.020Z,13.6
2018-10-01T05:54:15.571Z,13.6
2018-10-01T05:59:12.028Z,13.7
2018-10-01T06:04:08.152Z,13.8
2018-10-01T06:09:04.491Z,13.8
2018-10-01T06:14:01.002Z,13.8
2018-10-01T06:18:56.402Z,13.2
2018-10-01T06:23:52.552Z,13.9
2018-10-01T06:28:48.774Z,14
2018-10-01T06:33:44.748Z,13.3
2018-10-01T06:38:41.546Z,14.1
2018-10-01T06:43:36.492Z,14.1
2018-10-01T06:48:32.639Z,14.1
2018-10-01T06:53:30.117Z,14.2
2018-10-01T06:58:25.986Z,13.5
2018-10-01T07:03:24.003Z,14.4
2018-10-01T07:08:20.319Z,13.7
2018-10-01T07:13:16.889Z,13.7
2018-10-01T07:18:13.094Z,14.5
2018-10-01T07:23:09.752Z,14.5
2018-10-01T07:28:06.217Z,14.6
2018-10-01T07:33:05.877Z,14.7
2018-10-01T07:38:01.319Z,14.8
2018-10-01T07:43:01.821Z,13.5
2018-10-01T07:47:57.024Z,15
2018-10-01T07:52:53.712Z,15.1
2018-10-01T07:57:49.473Z,15.2
2018-10-01T08:02:46.123Z,15.2
2018-10-01T08:07:42.287Z,15.3
2018-10-01T08:12:38.527Z,15.3
2018-10-01T08:17:35.098Z,15.4
2018-10-01T08:22:31.360Z,15.5
2018-10-01T08:27:27.755Z,15.6
2018-10-01T08:32:24.196Z,15.7
2018-10-01T08:37:20.597Z,15.8
2018-10-01T08:42:16.879Z,15.1
2018-10-01T08:47:14.633Z,15.9
2018-10-01T08:52:10.761Z,16
2018-10-01T08:57:06.825Z,15.4
2018-10-01T09:02:03.941Z,16.2
2018-10-01T09:07:00.170Z,15.6
2018-10-01T09:12:00.787Z,15.4
2018-10-01T09:16:56.219Z,16.5
2018-10-01T09:21:52.552Z,16
2018-10-01T09:26:49.130Z,16.7
2018-10-01T09:31:45.715Z,16.1
2018-10-01T09:36:41.990Z,16.2
2018-10-01T09:41:38.363Z,16.2
2018-10-01T09:46:34.960Z,17
2018-10-01T09:51:32.057Z,17.1
2018-10-01T09:56:28.421Z,17.2
2018-10-01T10:01:23.480Z,17.3
2018-10-01T10:06:19.552Z,17.4
2018-10-01T10:11:15.865Z,16.8
2018-10-01T10:16:12.581Z,16.9
2018-10-01T10:21:09.369Z,17.7
2018-10-01T10:26:05.894Z,17.7
2018-10-01T10:31:02.296Z,17.8
2018-10-01T10:35:58.719Z,17.7
2018-10-01T10:40:55.022Z,18.1
2018-10-01T10:45:51.351Z,18.2
2018-10-01T10:50:48.421Z,18.3
2018-10-01T10:55:45.727Z,17.7
2018-10-01T11:00:42.366Z,17.8
2018-10-01T11:05:38.844Z,18
2018-10-01T11:10:39.401Z,18.9
2018-10-01T11:15:34.724Z,19
2018-10-01T11:20:30.881Z,18.5
2018-10-01T11:25:27.428Z,18.7
2018-10-01T11:30:24.194Z,18.8
2018-10-01T11:35:21.166Z,19
2018-10-01T11:40:17.514Z,19.2
2018-10-01T11:45:13.743Z,19.4
2018-10-01T11:50:10.411Z,19.6
2018-10-01T11:55:07.097Z,20
2018-10-01T12:00:03.693Z,20.1
2018-10-01T12:05:00.253Z,20.3
2018-10-01T12:09:57.035Z,20.4
2018-10-01T12:14:53.711Z,20.3
2018-10-01T12:19:50.150Z,20.5
2018-10-01T12:24:46.632Z,20.5
2018-10-01T12:29:43.450Z,20.4
2018-10-01T12:34:39.824Z,20.7
2018-10-01T12:39:36.276Z,21.3
2018-10-01T12:44:33.365Z,21.4
2018-10-01T12:49:29.480Z,21.4
2018-10-01T12:54:25.819Z,20.7
2018-10-01T12:59:23.790Z,20.8
2018-10-01T13:04:20.001Z,20.7
2018-10-01T13:09:16.356Z,20.7
2018-10-01T13:14:12.565Z,20.6
2018-10-01T13:19:08.952Z,20.4
2018-10-01T13:24:05.256Z,20.1
2018-10-01T13:29:03.437Z,19.3
2018-10-01T13:33:59.177Z,19.8
2018-10-01T13:38:55.494Z,19.6
2018-10-01T13:43:52.423Z,20.3
2018-10-01T13:48:48.901Z,19.6
2018-10-01T13:53:45.161Z,19.6
2018-10-01T13:58:42.249Z,19.6
2018-10-01T14:03:38.075Z,19.6
2018-10-01T14:08:34.421Z,19.5
2018-10-01T14:13:30.965Z,19.5
2018-10-01T14:18:27.139Z,19.4
2018-10-01T14:23:23.516Z,19.3
2018-10-01T14:28:19.415Z,19.2
2018-10-01T14:33:15.723Z,19.2
2018-10-01T14:38:12.461Z,19.1
2018-10-01T14:43:09.111Z,19
2018-10-01T14:48:05.052Z,18.9
2018-10-01T14:53:01.346Z,19.5
2018-10-01T14:57:58.086Z,18.8
2018-10-01T15:02:54.436Z,18.7
2018-10-01T15:07:50.973Z,19.3
2018-10-01T15:12:47.165Z,18.5
2018-10-01T15:17:43.109Z,19.1
2018-10-01T15:22:39.388Z,18.4
2018-10-01T15:27:35.750Z,18.3
2018-10-01T15:32:32.591Z,18.9
2018-10-01T15:37:28.855Z,17.5
2018-10-01T15:42:25.731Z,18.7
2018-10-01T15:47:22.164Z,18.7
2018-10-01T15:52:19.016Z,17.9
2018-10-01T15:57:15.483Z,17.9
2018-10-01T16:02:12.027Z,17.8
2018-10-01T16:07:08.787Z,17.7
2018-10-01T16:12:05.017Z,17.6
2018-10-01T16:17:01.981Z,17.5
2018-10-01T16:21:57.964Z,18.2
2018-10-01T16:26:54.387Z,18.1
2018-10-01T16:31:50.980Z,18.1
2018-10-01T16:36:47.138Z,18
2018-10-01T16:41:43.317Z,18
2018-10-01T16:46:40.968Z,17.9
2018-10-01T16:51:37.079Z,17.8
2018-10-01T16:56:33.910Z,17.8
2018-10-01T17:01:30.311Z,17.7
2018-10-01T17:06:26.766Z,17.7
2018-10-01T17:11:23.191Z,17.6
2018-10-01T17:16:19.638Z,17.5
2018-10-01T17:21:16.067Z,17.4
2018-10-01T17:26:12.456Z,17.3
2018-10-01T17:31:08.691Z,17.3
2018-10-01T17:36:04.929Z,17.2
2018-10-01T17:41:01.485Z,17.1
2018-10-01T17:45:57.790Z,17.1
2018-10-01T17:50:54.361Z,17
2018-10-01T17:55:51.568Z,17
2018-10-01T18:00:47.786Z,16.9
2018-10-01T18:05:44.182Z,16.9
2018-10-01T18:10:40.389Z,16.8
2018-10-01T18:15:36.830Z,16.7
2018-10-01T18:20:33.170Z,16.6
2018-10-01T18:25:29.719Z,16.6
2018-10-01T18:30:25.865Z,16.6
2018-10-01T18:35:21.847Z,16.6
2018-10-01T18:40:18.104Z,16.6
2018-10-01T18:45:14.505Z,16.3
2018-10-01T18:50:10.630Z,16.5
2018-10-01T18:55:06.880Z,16.5
2018-10-01T19:00:03.549Z,15.7
2018-10-01T19:04:59.761Z,16.4
2018-10-01T19:09:55.272Z,16.4
2018-10-01T19:14:51.702Z,16.4
2018-10-01T19:19:47.817Z,16.3
2018-10-01T19:24:44.193Z,16.3
2018-10-01T19:29:40.543Z,16.3
2018-10-01T19:34:36.924Z,16.3
2018-10-01T19:39:33.249Z,16.2
2018-10-01T19:44:29.706Z,16.2
2018-10-01T19:49:25.835Z,15.4
2018-10-01T19:54:21.991Z,16
2018-10-01T19:59:18.341Z,15.2
2018-10-01T20:04:14.806Z,15.9
2018-10-01T20:09:12.246Z,15.9
2018-10-01T20:14:08.359Z,15.9
2018-10-01T20:19:04.926Z,15.8
2018-10-01T20:24:01.463Z,15.7
2018-10-01T20:28:58.134Z,15.7
2018-10-01T20:33:54.368Z,15.7
2018-10-01T20:38:50.786Z,15.6
2018-10-01T20:43:47.236Z,15.6
2018-10-01T20:48:43.634Z,15.6
2018-10-01T20:53:41.005Z,15.5
2018-10-01T20:58:37.344Z,14.6
2018-10-01T21:03:33.972Z,15.5
2018-10-01T21:08:30.337Z,15.4
2018-10-01T21:13:26.792Z,15.4
2018-10-01T21:18:23.525Z,14.7
2018-10-01T21:23:20.105Z,15.4
2018-10-01T21:28:16.300Z,15.3
2018-10-01T21:33:12.638Z,14.5
2018-10-01T21:38:09.041Z,15
2018-10-01T21:43:05.225Z,15.3
2018-10-01T21:48:01.581Z,15.2
2018-10-01T21:52:58.138Z,15.2
2018-10-01T21:57:54.730Z,15.1
2018-10-01T22:02:51.392Z,15.1
2018-10-01T22:07:48.118Z,15.1
2018-10-01T22:12:44.655Z,15
2018-10-01T22:17:41.033Z,15
2018-10-01T22:22:37.173Z,14.9
2018-10-01T22:27:33.782Z,14.9
2018-10-01T22:32:30.220Z,14.8
2018-10-01T22:37:26.533Z,14.8
2018-10-01T22:42:23.178Z,14.8
2018-10-01T22:47:19.481Z,14.7
2018-10-01T22:52:15.862Z,14.7
2018-10-01T22:57:12.145Z,14.7
2018-10-01T23:02:08.788Z,13.9
2018-10-01T23:07:05.265Z,13.5
2018-10-01T23:12:01.818Z,14.5
2018-10-01T23:16:57.977Z,14.5
2018-10-01T23:21:54.371Z,14.5
2018-10-01T23:26:50.596Z,14.4
2018-10-01T23:31:47.129Z,13.6
2018-10-01T23:36:43.611Z,14.3
2018-10-01T23:41:40.154Z,14.2
2018-10-01T23:46:36.635Z,14.2
2018-10-01T23:51:33.147Z,14.2
2018-10-01T23:56:29.698Z,14.2
